Time;durP1;ratioP1;P1;durP2;ratioP2;P2;SDS_P1;SDS_P2;PMS_P1;PMS_P2;Temp;Humidity;BMP_temperature;BMP_pressure;BME280_temperature;BME280_humidity;BME280_pressure;Samples;Min_cycle;Max_cycle;Signal;HPM_P1;HPM_P2
2021/12/23 00:02:08;;;;;;;385.10;184.82;;;;;;;12.09;100.00;98684.41;4856565;29;20138;-69
2021/12/23 00:04:52;;;;;;;395.45;177.98;;;;;;;12.12;100.00;98687.75;4871306;29;20061;-67
2021/12/23 00:07:40;;;;;;;382.10;179.02;;;;;;;12.06;100.00;98687.09;4856435;29;20057;-68
2021/12/23 00:10:21;;;;;;;379.45;177.40;;;;;;;11.85;100.00;98692.13;4855873;29;20117;-66
2021/12/23 00:13:09;;;;;;;397.67;184.90;;;;;;;11.70;100.00;98690.06;4856180;29;20056;-68
2021/12/23 00:18:48;;;;;;;386.33;180.13;;;;;;;11.55;100.00;98697.47;4835446;29;20061;-66
2021/12/23 00:24:35;;;;;;;382.52;178.30;;;;;;;11.39;100.00;98702.31;4856361;29;20570;-68
2021/12/23 00:27:17;;;;;;;392.30;181.75;;;;;;;11.47;100.00;98705.47;4886153;29;20057;-66
2021/12/23 00:30:06;;;;;;;385.90;181.77;;;;;;;11.24;100.00;98718.28;4861051;29;20060;-67
2021/12/23 00:32:49;;;;;;;392.65;182.73;;;;;;;11.38;100.00;98731.56;4844988;29;20057;-65
2021/12/23 00:35:38;;;;;;;396.02;180.48;;;;;;;11.62;100.00;98741.09;4863957;29;20064;-68
2021/12/23 00:38:31;;;;;;;396.58;185.45;;;;;;;11.46;100.00;98755.38;4861026;29;23709;-67
2021/12/23 00:41:20;;;;;;;398.40;186.10;;;;;;;11.28;100.00;98754.22;4867925;29;20053;-68
2021/12/23 00:44:07;;;;;;;393.92;185.07;;;;;;;11.34;100.00;98759.19;4856155;29;20084;-67
2021/12/23 00:46:49;;;;;;;388.63;184.75;;;;;;;11.54;100.00;98757.69;4869176;29;20057;-68
2021/12/23 00:49:37;;;;;;;406.00;183.48;;;;;;;11.34;100.00;98776.38;4853942;29;20048;-67
2021/12/23 00:52:26;;;;;;;399.52;180.52;;;;;;;11.51;100.00;98794.75;4856680;29;20050;-67
2021/12/23 00:55:20;;;;;;;391.15;179.13;;;;;;;11.50;100.00;98793.91;4849850;29;20065;-68
2021/12/23 00:58:08;;;;;;;391.65;185.32;;;;;;;11.64;100.00;98801.22;4855303;29;20065;-68
2021/12/23 01:01:01;;;;;;;386.20;181.98;;;;;;;11.43;100.00;98804.47;4839860;29;20137;-68
2021/12/23 01:03:43;;;;;;;394.23;181.30;;;;;;;11.40;100.00;98814.91;4855438;29;20045;-68
2021/12/23 01:06:32;;;;;;;395.77;182.80;;;;;;;11.31;100.00;98828.06;4861484;29;20148;-66
2021/12/23 01:09:13;;;;;;;389.25;184.50;;;;;;;11.59;100.00;98844.38;4866741;29;20086;-68
2021/12/23 01:12:03;;;;;;;399.35;184.23;;;;;;;11.83;100.00;98856.53;4859720;29;20045;-67
2021/12/23 01:15:12;;;;;;;394.15;186.25;;;;;;;11.59;100.00;98822.88;4851741;29;20053;-68
2021/12/23 01:17:56;;;;;;;401.67;182.07;;;;;;;11.31;100.00;98763.59;4864851;29;20144;-68
2021/12/23 01:20:52;;;;;;;398.90;182.43;;;;;;;11.29;100.00;98750.75;4863223;29;20486;-67
2021/12/23 01:23:42;;;;;;;393.70;179.05;;;;;;;11.53;100.00;98756.84;4861734;29;20164;-67
2021/12/23 01:26:32;;;;;;;405.25;185.02;;;;;;;11.58;100.00;98762.69;4847354;29;20061;-67
2021/12/23 01:29:16;;;;;;;388.95;179.85;;;;;;;11.57;100.00;98766.19;4862548;29;20057;-68
2021/12/23 01:32:06;;;;;;;375.15;175.85;;;;;;;11.56;100.00;98761.94;4862898;29;20083;-68
2021/12/23 01:34:49;;;;;;;362.17;171.32;;;;;;;11.53;100.00;98764.59;4871432;29;20060;-66
2021/12/23 01:37:44;;;;;;;388.08;177.57;;;;;;;11.48;100.00;98771.66;4866690;29;20061;-67
2021/12/23 01:40:24;;;;;;;391.52;176.40;;;;;;;11.52;100.00;98775.81;4854594;29;20085;-68
2021/12/23 01:43:16;;;;;;;381.40;177.90;;;;;;;11.48;100.00;98789.72;4840766;29;20057;-68
2021/12/23 01:46:07;;;;;;;401.92;179.48;;;;;;;11.46;100.00;98806.97;4854719;29;20073;-67
2021/12/23 01:48:51;;;;;;;378.08;171.57;;;;;;;11.29;100.00;98806.63;4854102;29;20064;-68
2021/12/23 01:51:41;;;;;;;385.73;173.38;;;;;;;11.19;100.00;98794.91;4836691;29;20057;-68
2021/12/23 01:54:36;;;;;;;397.30;177.68;;;;;;;11.10;100.00;98788.31;4850778;29;20114;-68
2021/12/23 01:57:26;;;;;;;378.65;173.88;;;;;;;11.07;100.00;98788.41;4852796;29;20566;-67
2021/12/23 02:00:15;;;;;;;385.60;171.20;;;;;;;11.20;100.00;98794.03;4852579;29;20049;-69
2021/12/23 02:03:12;;;;;;;396.20;180.00;;;;;;;11.21;100.00;98796.56;4843734;29;20145;-68
2021/12/23 02:05:48;;;;;;;387.05;173.88;;;;;;;11.34;100.00;98803.03;4830133;29;20056;-68
2021/12/23 02:08:45;;;;;;;394.65;183.18;;;;;;;11.43;100.00;98809.63;4863920;29;20045;-68
2021/12/23 02:11:28;;;;;;;;;;;;;;;11.43;100.00;98807.06;4852526;29;20060;-69
2021/12/23 02:14:19;;;;;;;388.40;176.25;;;;;;;11.29;100.00;98809.22;4853940;29;19959;-68
2021/12/23 02:17:01;;;;;;;414.58;182.13;;;;;;;11.19;100.00;98805.22;4868463;29;20057;-68
2021/12/23 02:19:55;;;;;;;383.60;179.00;;;;;;;11.33;100.00;98795.34;4854553;29;20050;-68
2021/12/23 02:22:38;;;;;;;395.73;179.30;;;;;;;11.27;100.00;98795.53;4853990;29;20061;-69
2021/12/23 02:25:34;;;;;;;383.67;178.88;;;;;;;11.24;100.00;98800.78;4854075;29;20092;-68
2021/12/23 02:28:10;;;;;;;395.13;176.40;;;;;;;11.56;100.00;98804.94;4860284;29;20053;-69
2021/12/23 02:30:58;;;;;;;376.83;174.82;;;;;;;11.40;100.00;98815.75;4856017;29;20053;-69
2021/12/23 02:33:48;;;;;;;373.85;171.75;;;;;;;11.61;100.00;98828.84;4856987;29;20141;-67
2021/12/23 02:36:37;;;;;;;377.35;173.82;;;;;;;11.52;100.00;98832.56;4862297;29;20132;-67
2021/12/23 02:39:29;;;;;;;395.88;178.30;;;;;;;11.29;100.00;98827.28;4861652;29;20053;-67
2021/12/23 02:42:11;;;;;;;371.02;171.85;;;;;;;11.21;100.00;98837.81;4858029;29;20049;-70
2021/12/23 02:45:09;;;;;;;371.73;173.85;;;;;;;11.39;100.00;98832.13;4856054;29;20125;-69
2021/12/23 02:47:51;;;;;;;385.73;175.77;;;;;;;11.64;100.00;98832.19;4872481;29;20065;-69
2021/12/23 02:50:41;;;;;;;379.30;174.30;;;;;;;11.58;100.00;98831.50;4864219;29;20056;-68
2021/12/23 02:53:23;;;;;;;379.83;174.35;;;;;;;11.43;100.00;98830.25;4846125;29;20071;-69
2021/12/23 02:56:21;;;;;;;361.10;169.43;;;;;;;11.49;100.00;98843.00;4841749;29;20637;-69
2021/12/23 02:59:10;;;;;;;378.30;170.02;;;;;;;11.41;100.00;98850.13;4836144;29;20052;-70
2021/12/23 03:02:01;;;;;;;369.20;164.60;;;;;;;11.67;100.00;98859.63;4843565;29;20060;-68
2021/12/23 03:04:43;;;;;;;379.70;173.13;;;;;;;11.67;100.00;98862.19;4844853;29;20057;-69
2021/12/23 03:07:31;;;;;;;377.05;171.45;;;;;;;11.65;100.00;98864.84;4839453;29;20053;-69
2021/12/23 03:10:13;;;;;;;376.75;170.60;;;;;;;11.80;100.00;98871.28;4843322;29;20050;-70
2021/12/23 03:13:04;;;;;;;353.40;168.70;;;;;;;11.86;100.00;98877.09;4837846;29;20058;-69
2021/12/23 03:15:46;;;;;;;364.58;172.52;;;;;;;12.16;100.00;98882.13;4868614;29;20050;-69
2021/12/23 03:18:36;;;;;;;350.10;164.52;;;;;;;12.37;100.00;98891.75;4828563;29;20074;-68
2021/12/23 03:21:18;;;;;;;;;;;;;;;12.88;100.00;98908.94;4849595;29;20109;-69
2021/12/23 03:24:09;;;;;;;341.40;155.48;;;;;;;13.49;100.00;98915.31;4835887;29;20516;-69
2021/12/23 03:26:51;;;;;;;343.85;160.23;;;;;;;13.94;100.00;98925.63;4834326;29;20049;-69
2021/12/23 03:29:39;;;;;;;330.23;156.25;;;;;;;14.19;100.00;98935.88;4832858;29;20448;-68
2021/12/23 03:32:22;;;;;;;323.70;153.27;;;;;;;14.36;100.00;98930.84;4830269;29;20111;-69
2021/12/23 03:35:12;;;;;;;306.10;149.00;;;;;;;14.37;100.00;98944.63;4829588;29;20137;-68
2021/12/23 03:38:01;;;;;;;311.65;148.15;;;;;;;14.76;100.00;98939.56;4835112;29;20064;-68
2021/12/23 03:40:52;;;;;;;301.30;146.73;;;;;;;15.16;100.00;98941.28;4834306;29;20064;-69
2021/12/23 03:43:48;;;;;;;296.38;144.70;;;;;;;15.23;100.00;98934.91;4834848;29;20054;-69
2021/12/23 03:46:24;;;;;;;298.17;142.98;;;;;;;15.74;100.00;98944.66;4832811;29;20735;-68
2021/12/23 03:49:14;;;;;;;281.80;142.00;;;;;;;15.94;100.00;98960.19;4834472;29;20068;-69
2021/12/23 03:51:56;;;;;;;284.13;141.50;;;;;;;16.07;100.00;98961.28;4834925;29;20058;-68
2021/12/23 03:54:52;;;;;;;280.15;139.82;;;;;;;16.14;100.00;98959.22;4830660;29;20098;-67
2021/12/23 03:57:42;;;;;;;317.00;160.90;;;;;;;15.85;95.48;98968.41;4855356;29;20073;-68
2021/12/23 04:00:32;;;;;;;333.92;166.80;;;;;;;15.73;97.86;98968.94;4851940;29;21716;-69
2021/12/23 04:03:22;;;;;;;336.55;168.80;;;;;;;15.99;99.60;98975.53;4854438;29;20140;-68
2021/12/23 04:06:12;;;;;;;356.88;174.85;;;;;;;15.90;96.46;98986.34;4838907;29;20081;-70
2021/12/23 04:08:56;;;;;;;370.00;177.90;;;;;;;15.92;97.71;98980.19;4853776;29;20049;-69
2021/12/23 04:11:46;;;;;;;350.05;183.98;;;;;;;15.77;99.09;98978.31;4853240;29;20067;-67
2021/12/23 04:14:28;;;;;;;346.27;180.43;;;;;;;15.69;97.96;98993.41;4855437;29;20060;-69
2021/12/23 04:17:17;;;;;;;356.95;181.27;;;;;;;15.84;99.86;98999.63;4856480;29;20109;-68
2021/12/23 04:20:10;;;;;;;376.15;192.88;;;;;;;16.01;98.29;99007.50;4853087;29;20060;-69
2021/12/23 04:23:03;;;;;;;384.85;200.70;;;;;;;15.78;96.14;99007.72;4868245;29;20053;-69
2021/12/23 04:25:54;;;;;;;377.50;198.45;;;;;;;15.89;100.00;99013.25;4842528;29;20141;-68
2021/12/23 04:28:45;;;;;;;393.48;201.95;;;;;;;15.99;96.87;99017.13;4859066;29;20063;-67
2021/12/23 04:31:41;;;;;;;383.25;200.82;;;;;;;15.84;95.46;99007.44;4861721;29;20068;-66
2021/12/23 04:34:31;;;;;;;401.05;208.90;;;;;;;15.65;94.78;99018.66;4864865;29;20053;-66
2021/12/23 04:37:13;;;;;;;416.45;212.38;;;;;;;15.91;97.47;99024.44;4865185;29;20073;-66
2021/12/23 04:40:06;;;;;;;387.83;199.73;;;;;;;16.02;95.35;99037.78;4865051;29;20112;-64
2021/12/23 04:42:56;;;;;;;374.42;201.35;;;;;;;16.10;95.25;99032.22;4856295;29;20330;-66
2021/12/23 04:45:53;;;;;;;382.15;197.10;;;;;;;16.13;94.91;99032.91;4862295;29;20059;-65
2021/12/23 04:48:29;;;;;;;382.58;186.98;;;;;;;16.00;92.89;99034.41;4862681;29;20068;-65
2021/12/23 04:51:19;;;;;;;361.33;181.80;;;;;;;16.13;94.96;99035.50;4855023;29;20049;-64
2021/12/23 04:54:03;;;;;;;350.52;183.50;;;;;;;16.10;93.98;99035.66;4856983;29;20064;-64
2021/12/23 04:56:59;;;;;;;346.10;179.70;;;;;;;16.25;92.81;99034.94;4857973;29;20053;-64
2021/12/23 04:59:48;;;;;;;373.40;183.05;;;;;;;16.21;92.22;99033.38;4860188;29;20069;-63
2021/12/23 05:02:35;;;;;;;358.00;180.90;;;;;;;16.40;93.84;99029.00;4864703;29;20061;-64
2021/12/23 05:05:19;;;;;;;364.45;186.38;;;;;;;16.40;91.63;99054.16;4850069;29;20068;-64
2021/12/23 05:08:10;;;;;;;349.67;177.27;;;;;;;16.42;89.94;99048.00;4851235;29;20064;-66
2021/12/23 05:10:52;;;;;;;359.98;185.60;;;;;;;16.68;90.06;99053.72;4858342;29;20109;-63
2021/12/23 05:13:40;;;;;;;368.90;186.45;;;;;;;16.48;87.22;99046.00;4838285;29;20064;-64
2021/12/23 05:16:24;;;;;;;373.55;188.55;;;;;;;16.51;91.28;99035.47;4860028;29;20129;-68
2021/12/23 05:19:13;;;;;;;381.00;190.23;;;;;;;16.55;90.05;99034.38;4862548;29;20045;-67
2021/12/23 05:21:56;;;;;;;381.00;192.85;;;;;;;16.72;91.04;99044.84;4855248;29;20053;-65
2021/12/23 05:24:45;;;;;;;378.85;197.10;;;;;;;16.55;88.19;99049.97;4850929;29;20073;-64
2021/12/23 05:27:27;;;;;;;388.67;194.57;;;;;;;16.61;92.05;99040.16;4871956;29;20448;-64
2021/12/23 05:30:21;;;;;;;356.25;183.20;;;;;;;16.65;91.31;99030.44;4859256;29;20117;-63
2021/12/23 05:33:04;;;;;;;332.50;168.13;;;;;;;16.55;87.29;99022.22;4858089;29;20049;-60
2021/12/23 05:35:55;;;;;;;308.95;162.50;;;;;;;16.66;86.61;99027.78;4857729;29;20069;-61
2021/12/23 05:38:44;;;;;;;307.75;156.90;;;;;;;16.64;86.34;99016.59;4856113;29;20049;-61
2021/12/23 05:41:34;;;;;;;316.13;156.55;;;;;;;16.86;89.71;99018.97;4842751;29;20486;-60
2021/12/23 05:44:16;;;;;;;317.23;152.85;;;;;;;16.73;86.79;99016.16;4864375;29;20056;-61
2021/12/23 05:47:07;;;;;;;297.85;151.00;;;;;;;16.84;87.30;99018.22;4844059;29;20144;-60
2021/12/23 05:49:50;;;;;;;275.58;146.63;;;;;;;17.12;84.71;99025.47;4859411;29;20121;-60
2021/12/23 05:52:40;;;;;;;288.83;147.80;;;;;;;17.07;84.51;99010.09;4858544;29;20754;-60
2021/12/23 05:55:22;;;;;;;283.02;146.45;;;;;;;17.16;84.17;99012.19;4862239;29;20053;-60
2021/12/23 05:58:12;;;;;;;297.52;150.23;;;;;;;17.28;83.40;99007.28;4838947;29;20080;-60
2021/12/23 06:00:56;;;;;;;305.92;151.77;;;;;;;17.44;87.13;99008.19;4861556;29;20091;-60
2021/12/23 06:03:46;;;;;;;292.73;146.27;;;;;;;17.37;81.88;98993.78;4865318;29;20049;-59
2021/12/23 06:06:36;;;;;;;295.45;146.77;;;;;;;17.31;81.95;98991.53;4864536;29;20083;-64
2021/12/23 06:09:17;;;;;;;281.15;144.50;;;;;;;17.55;83.31;98985.03;4865402;29;20049;-61
2021/12/23 06:12:07;;;;;;;280.17;144.55;;;;;;;17.76;85.06;98973.47;4859556;29;20101;-63
2021/12/23 06:14:57;;;;;;;285.88;144.98;;;;;;;17.86;81.03;98969.44;4836856;29;20089;-62
2021/12/23 06:17:52;;;;;;;274.35;138.00;;;;;;;17.64;78.93;98963.69;4860510;29;20057;-62
2021/12/23 06:20:28;;;;;;;275.90;140.07;;;;;;;17.81;79.88;98954.94;4847804;29;20049;-61
2021/12/23 06:23:18;;;;;;;274.55;141.77;;;;;;;17.37;77.49;98952.13;4859390;29;20186;-62
2021/12/23 06:26:07;;;;;;;271.75;136.48;;;;;;;17.16;78.53;98939.31;4865863;29;20128;-62
2021/12/23 06:28:49;;;;;;;271.95;141.38;;;;;;;17.53;77.68;98939.97;4860862;29;20561;-62
2021/12/23 06:31:40;;;;;;;278.45;141.80;;;;;;;17.94;77.29;98929.91;4862271;29;20057;-61
2021/12/23 06:34:22;;;;;;;281.27;141.88;;;;;;;18.15;76.88;98920.03;4859334;29;20053;-60
2021/12/23 06:37:10;;;;;;;272.23;139.50;;;;;;;17.86;75.54;98916.47;4851751;29;20068;-60
2021/12/23 06:39:53;;;;;;;267.35;137.75;;;;;;;17.82;75.80;98918.38;4852702;29;20522;-60
2021/12/23 06:42:46;;;;;;;268.08;137.20;;;;;;;18.12;75.65;98912.41;4864575;29;20140;-61
2021/12/23 06:45:29;;;;;;;263.25;134.27;;;;;;;18.38;70.53;98909.09;4855669;29;21542;-60
2021/12/23 06:48:20;;;;;;;262.17;134.38;;;;;;;18.48;72.29;98894.59;4858184;29;20104;-61
2021/12/23 06:51:02;;;;;;;278.52;135.77;;;;;;;18.09;72.89;98886.47;4857339;29;20124;-60
2021/12/23 06:53:52;;;;;;;256.00;135.05;;;;;;;18.12;73.45;98883.72;4862251;29;20140;-61
2021/12/23 06:56:35;;;;;;;236.38;127.50;;;;;;;18.49;70.59;98870.19;4856603;29;20067;-61
2021/12/23 06:59:24;;;;;;;243.25;129.57;;;;;;;18.45;72.34;98870.44;4846136;29;20060;-60
2021/12/23 07:02:19;;;;;;;247.48;130.48;;;;;;;18.71;70.28;98865.41;4859795;29;20054;-61
2021/12/23 07:04:56;;;;;;;248.13;130.98;;;;;;;18.10;67.68;98867.31;4862304;29;20068;-60
2021/12/23 07:07:54;;;;;;;240.27;130.00;;;;;;;18.55;67.78;98858.53;4864614;29;20057;-60
2021/12/23 07:10:39;;;;;;;255.30;131.02;;;;;;;18.47;68.29;98851.19;4860148;29;20061;-60
2021/12/23 07:13:29;;;;;;;252.88;131.40;;;;;;;18.81;67.59;98836.97;4853643;29;20065;-61
2021/12/23 07:16:20;;;;;;;234.15;123.13;;;;;;;18.68;65.79;98834.25;4856591;29;20049;-60
2021/12/23 07:19:10;;;;;;;244.68;124.70;;;;;;;18.75;65.88;98826.91;4859639;29;20144;-61
2021/12/23 07:21:59;;;;;;;254.82;125.43;;;;;;;18.65;64.74;98824.03;4862797;29;20414;-61
2021/12/23 07:24:44;;;;;;;240.00;123.72;;;;;;;18.60;65.85;98814.78;4848376;29;20072;-60
2021/12/23 07:27:34;;;;;;;251.23;126.28;;;;;;;18.59;67.14;98816.56;4848795;29;20072;-60
2021/12/23 07:30:18;;;;;;;235.52;121.07;;;;;;;18.44;64.80;98812.22;4860565;29;20053;-61
2021/12/23 07:33:08;;;;;;;225.18;118.70;;;;;;;18.89;68.60;98802.56;4849826;29;20110;-61
2021/12/23 07:35:51;;;;;;;227.63;121.57;;;;;;;18.82;63.65;98799.50;4860689;29;20064;-61
2021/12/23 07:38:42;;;;;;;226.20;118.88;;;;;;;18.66;63.74;98796.16;4875259;29;20128;-61
2021/12/23 07:41:29;;;;;;;233.98;116.82;;;;;;;18.85;63.44;98791.47;4848907;29;20061;-62
2021/12/23 07:44:28;;;;;;;233.38;114.30;;;;;;;19.14;65.04;98784.44;4857716;29;20053;-61
2021/12/23 07:47:11;;;;;;;240.15;115.97;;;;;;;18.94;63.58;98782.22;4854639;29;20157;-61
2021/12/23 07:50:00;;;;;;;221.35;114.57;;;;;;;19.14;63.95;98776.59;4846817;29;20049;-62
2021/12/23 07:52:43;;;;;;;215.15;110.20;;;;;;;19.23;66.50;98775.19;4850030;29;20059;-62
2021/12/23 07:55:31;;;;;;;223.40;110.85;;;;;;;18.99;59.22;98770.56;4850066;29;20061;-61
2021/12/23 07:58:20;;;;;;;211.55;109.35;;;;;;;19.08;61.74;98763.91;4836643;29;20505;-60
2021/12/23 08:01:10;;;;;;;213.00;109.00;;;;;;;19.29;63.78;98762.56;4838792;29;20049;-62
2021/12/23 08:03:52;;;;;;;207.68;109.22;;;;;;;19.37;64.65;98756.84;4867915;29;20064;-61
2021/12/23 08:06:41;;;;;;;217.05;107.13;;;;;;;19.42;60.02;98750.38;4837974;29;20058;-61
2021/12/23 08:09:24;;;;;;;203.70;106.28;;;;;;;19.28;58.97;98752.22;4845305;29;20053;-61
2021/12/23 08:12:14;;;;;;;203.23;105.10;;;;;;;19.34;60.11;98744.81;4825444;29;20550;-61
2021/12/23 08:14:57;;;;;;;204.18;104.82;;;;;;;19.52;60.30;98741.97;4841095;29;20061;-61
2021/12/23 08:17:50;;;;;;;200.32;105.22;;;;;;;19.57;58.52;98745.13;4841315;29;20058;-62
2021/12/23 08:20:34;;;;;;;196.82;101.15;;;;;;;19.34;56.37;98734.34;4835653;29;20527;-61
2021/12/23 08:23:23;;;;;;;186.10;95.18;;;;;;;19.34;55.35;98731.75;4836606;29;20076;-61
2021/12/23 08:26:13;;;;;;;196.48;97.72;;;;;;;19.30;57.03;98738.13;4836805;29;20085;-61
2021/12/23 08:29:05;;;;;;;178.07;95.43;;;;;;;19.44;56.81;98734.59;4837373;29;20106;-61
2021/12/23 08:31:55;;;;;;;197.18;96.47;;;;;;;19.51;57.34;98725.44;4836331;29;20111;-61
2021/12/23 08:34:45;;;;;;;184.98;91.03;;;;;;;19.56;56.93;98728.59;4835179;29;20766;-61
2021/12/23 08:37:29;;;;;;;195.88;94.28;;;;;;;19.47;56.04;98727.41;4831944;29;20137;-63
2021/12/23 08:40:18;;;;;;;185.85;93.72;;;;;;;19.47;55.15;98730.03;4839944;29;20058;-62
2021/12/23 08:43:02;;;;;;;186.73;90.55;;;;;;;19.55;57.23;98726.09;4840211;29;20058;-64
2021/12/23 08:45:51;;;;;;;166.77;86.65;;;;;;;19.60;55.24;98719.63;4832513;29;20057;-63
2021/12/23 08:48:41;;;;;;;160.95;84.85;;;;;;;19.63;53.69;98722.06;4836490;29;20053;-63
2021/12/23 08:51:23;;;;;;;151.07;83.15;;;;;;;19.70;55.91;98714.63;4835264;29;20049;-62
2021/12/23 08:54:20;;;;;;;181.77;95.18;;;;;;;19.57;58.07;98704.13;4836311;29;20142;-63
2021/12/23 08:57:05;;;;;;;170.98;90.82;;;;;;;19.41;57.47;98699.06;4836535;29;20060;-63
2021/12/23 08:59:54;;;;;;;162.95;89.97;;;;;;;19.41;58.12;98699.06;4837057;29;20141;-62
2021/12/23 09:02:37;;;;;;;167.80;87.05;;;;;;;19.49;55.97;98701.19;4834494;29;20062;-63
2021/12/23 09:05:27;;;;;;;161.18;82.45;;;;;;;19.34;53.71;98689.94;4823894;29;20064;-63
2021/12/23 09:08:16;;;;;;;165.43;83.47;;;;;;;19.49;57.97;98696.81;4818875;29;20042;-63
2021/12/23 09:11:01;;;;;;;159.23;79.43;;;;;;;19.44;53.72;98692.78;4818661;29;20136;-62
2021/12/23 09:13:57;;;;;;;150.60;80.28;;;;;;;19.38;57.78;98687.97;4823136;29;20778;-63
2021/12/23 09:16:34;;;;;;;149.63;80.57;;;;;;;19.34;56.64;98679.50;4822954;29;20062;-59
2021/12/23 09:19:30;;;;;;;151.40;78.80;;;;;;;19.29;53.81;98678.13;4823252;29;20127;-62
2021/12/23 09:22:06;;;;;;;162.48;80.53;;;;;;;19.25;57.11;98672.25;4820110;29;20053;-63
2021/12/23 09:24:58;;;;;;;147.63;79.50;;;;;;;19.27;57.40;98678.22;4821013;29;20054;-62
2021/12/23 09:33:53;;;;;;;142.00;75.38;;;;;;;19.27;55.83;98659.94;4825936;29;20543;-62
2021/12/23 09:36:43;;;;;;;156.23;74.75;;;;;;;19.23;54.65;98670.69;4829039;29;20054;-62
2021/12/23 09:39:27;;;;;;;141.07;78.10;;;;;;;19.21;57.27;98656.91;4829535;29;20137;-62
2021/12/23 09:42:20;;;;;;;154.32;76.25;;;;;;;19.18;55.24;98659.69;4824709;29;20446;-62
2021/12/23 09:45:06;;;;;;;139.50;72.55;;;;;;;19.09;53.72;98663.75;4829411;29;20058;-63
2021/12/23 09:47:56;;;;;;;139.02;71.40;;;;;;;19.06;52.93;98663.97;4823472;29;20569;-63
2021/12/23 09:50:41;;;;;;;132.57;71.53;;;;;;;19.08;55.69;98664.69;4832177;29;20703;-62
2021/12/23 09:53:41;;;;;;;139.38;71.72;;;;;;;19.00;57.45;98662.56;4820918;29;20531;-62
2021/12/23 09:56:29;;;;;;;141.57;70.20;;;;;;;18.91;57.87;98660.56;4826972;29;20379;-62
2021/12/23 09:59:27;;;;;;;148.35;74.28;;;;;;;18.85;58.36;98663.53;4843387;29;20160;-63
2021/12/23 10:02:04;;;;;;;143.18;71.78;;;;;;;18.87;54.06;98666.06;4841466;29;20064;-62
2021/12/23 10:04:53;;;;;;;144.45;70.57;;;;;;;18.90;57.05;98660.66;4839614;29;20157;-63
2021/12/23 10:07:36;;;;;;;145.73;70.90;;;;;;;18.85;57.85;98660.09;4819969;29;20482;-63
2021/12/23 10:10:44;;;;;;;134.13;70.68;;;;;;;18.88;59.75;98652.09;4834712;29;20076;-63
2021/12/23 10:30:15;;;;;;;126.93;63.47;;;;;;;18.78;55.33;98661.44;4844616;29;20110;-63
2021/12/23 10:38:53;;;;;;;130.63;65.82;;;;;;;18.46;62.34;98653.81;4857407;29;20161;-60
2021/12/23 10:41:36;;;;;;;121.38;60.90;;;;;;;18.43;59.13;98661.03;4848088;29;20529;-62
2021/12/23 10:44:36;;;;;;;115.22;61.45;;;;;;;18.39;58.97;98655.16;4838728;29;20041;-62
2021/12/23 10:47:41;;;;;;;116.95;62.47;;;;;;;18.40;60.13;98664.66;4849516;29;20053;-62
2021/12/23 10:53:40;;;;;;;115.03;60.30;;;;;;;18.21;63.29;98658.88;4856227;29;20054;-62
2021/12/23 10:59:55;;;;;;;126.57;64.10;;;;;;;17.93;69.46;98662.34;4806720;29;20553;-62
2021/12/23 11:02:39;;;;;;;121.10;62.70;;;;;;;17.82;69.87;98657.75;4840305;29;20053;-62
2021/12/23 11:05:41;;;;;;;131.45;64.13;;;;;;;17.74;72.54;98661.75;4837491;29;20049;-63
2021/12/23 11:08:26;;;;;;;125.68;65.13;;;;;;;17.60;72.22;98659.94;4835147;29;20057;-62
2021/12/23 11:11:59;;;;;;;132.63;65.50;;;;;;;17.49;75.25;98657.94;4836763;29;20056;-62
2021/12/23 11:27:36;;;;;;;139.63;69.07;;;;;;;16.96;85.84;98647.19;4847433;29;20060;-62
2021/12/23 11:39:49;;;;;;;156.63;72.55;;;;;;;16.55;88.83;98657.25;4858550;29;20072;-63
2021/12/23 11:43:03;;;;;;;148.43;71.25;;;;;;;16.43;90.85;98654.41;4851635;29;20059;-61
2021/12/23 11:45:50;;;;;;;157.65;75.00;;;;;;;16.32;92.64;98651.53;4863209;29;20061;-62
2021/12/23 11:48:43;;;;;;;159.18;72.93;;;;;;;16.19;92.56;98649.69;4845875;29;20137;-62
2021/12/23 11:51:29;;;;;;;153.50;74.03;;;;;;;16.09;93.69;98651.94;4861803;29;20138;-64
2021/12/23 11:54:23;;;;;;;161.53;74.83;;;;;;;16.06;94.84;98654.66;4855285;29;20137;-62
2021/12/23 11:57:35;;;;;;;142.20;71.95;;;;;;;15.87;94.27;98660.00;4846311;29;20053;-61
2021/12/23 12:00:32;;;;;;;159.52;76.13;;;;;;;15.76;96.80;98654.50;4849341;29;20046;-62
2021/12/23 12:03:16;;;;;;;160.20;75.72;;;;;;;15.68;97.55;98660.09;4855916;29;20873;-63
2021/12/23 12:06:27;;;;;;;164.02;76.88;;;;;;;15.60;97.73;98656.22;4855763;29;20084;-62
2021/12/23 12:09:17;;;;;;;145.63;74.78;;;;;;;15.55;99.27;98659.06;4856751;29;20140;-63
2021/12/23 12:12:08;;;;;;;160.48;78.78;;;;;;;15.40;100.00;98662.41;4856716;29;20148;-62
2021/12/23 12:15:00;;;;;;;161.43;78.03;;;;;;;15.33;99.19;98667.03;4853953;29;20062;-62
2021/12/23 12:17:44;;;;;;;158.27;80.30;;;;;;;15.31;100.00;98665.44;4852493;29;20060;-62
2021/12/23 12:21:02;;;;;;;164.43;76.88;;;;;;;15.26;100.00;98663.06;4849643;29;20053;-62
2021/12/23 12:23:44;;;;;;;168.77;78.47;;;;;;;15.19;100.00;98666.03;4848233;29;20064;-63
2021/12/23 12:26:35;;;;;;;158.15;78.88;;;;;;;15.15;100.00;98675.72;4854416;29;20053;-64
2021/12/23 12:29:18;;;;;;;165.88;83.07;;;;;;;15.09;100.00;98678.59;4855623;29;20072;-63
2021/12/23 12:32:07;;;;;;;174.82;84.60;;;;;;;15.06;100.00;98675.34;4869206;29;20066;-63
2021/12/23 12:35:00;;;;;;;179.70;86.20;;;;;;;15.13;100.00;98677.56;4856958;29;20057;-61
2021/12/23 12:37:46;;;;;;;188.95;87.80;;;;;;;15.07;100.00;98674.41;4855936;29;20061;-60
2021/12/23 12:41:07;;;;;;;188.30;89.57;;;;;;;15.01;100.00;98665.16;4846608;29;20076;-61
2021/12/23 12:44:00;;;;;;;;;;;;;;;14.96;100.00;98669.75;4857545;29;20422;-62
2021/12/23 12:47:11;;;;;;;179.65;86.72;;;;;;;14.91;100.00;98679.50;4838295;29;19928;-61
2021/12/23 12:50:29;;;;;;;189.60;90.38;;;;;;;14.85;100.00;98678.03;4518315;29;9999779;-62
2021/12/23 12:53:20;;;;;;;208.98;94.40;;;;;;;14.83;100.00;98686.81;4865756;29;20083;-63
2021/12/23 12:56:29;;;;;;;201.30;92.53;;;;;;;14.73;100.00;98688.13;4851662;29;20129;-63
2021/12/23 12:59:24;;;;;;;203.50;93.13;;;;;;;14.58;100.00;98689.69;4824889;29;20411;-63
2021/12/23 13:02:31;;;;;;;202.65;92.95;;;;;;;14.64;100.00;98693.75;4828291;29;20053;-64
2021/12/23 13:05:31;;;;;;;193.32;92.95;;;;;;;14.68;100.00;98696.16;4823547;29;20065;-63
2021/12/23 13:08:24;;;;;;;211.10;98.68;;;;;;;14.58;100.00;98697.47;4835559;29;20054;-64
2021/12/23 13:12:01;;;;;;;199.00;97.45;;;;;;;14.47;100.00;98703.13;4797264;29;20105;-63
2021/12/23 13:15:57;;;;;;;226.73;103.38;;;;;;;14.43;100.00;98706.78;4831271;29;20081;-64
2021/12/23 13:18:44;;;;;;;226.13;107.07;;;;;;;14.34;100.00;98712.34;4831095;29;20068;-64
2021/12/23 13:21:48;;;;;;;219.35;101.97;;;;;;;14.41;100.00;98706.00;4834259;29;20746;-65
2021/12/23 13:24:38;;;;;;;220.32;102.15;;;;;;;14.27;100.00;98705.78;4849225;29;20047;-64
2021/12/23 13:27:30;;;;;;;204.30;100.40;;;;;;;14.20;100.00;98708.69;4837222;29;20175;-64
2021/12/23 13:30:23;;;;;;;214.25;104.45;;;;;;;14.24;100.00;98715.41;4836466;29;20050;-64
2021/12/23 13:33:12;;;;;;;222.80;104.22;;;;;;;14.25;100.00;98711.91;4870003;29;20482;-63
2021/12/23 13:36:10;;;;;;;226.27;107.30;;;;;;;14.03;100.00;98715.47;4821028;29;20428;-63
2021/12/23 13:39:14;;;;;;;234.48;106.57;;;;;;;13.93;100.00;98716.75;4831750;29;20070;-63
2021/12/23 13:42:33;;;;;;;235.18;109.57;;;;;;;13.78;100.00;98722.59;4833342;29;20053;-62
2021/12/23 13:45:22;;;;;;;229.98;109.03;;;;;;;13.73;100.00;98724.50;4840425;29;20056;-61
2021/12/23 13:48:15;;;;;;;234.18;109.07;;;;;;;13.70;100.00;98730.69;4835527;29;20065;-61